createdAt,value
2022-08-18T00:02:36.723Z,10.10
2022-08-18T00:07:39.502Z,9.77
2022-08-18T00:12:49.065Z,9.50
2022-08-18T00:17:50.999Z,10.77
2022-08-18T00:22:53.265Z,10.27
2022-08-18T00:27:55.044Z,10.38
2022-08-18T00:32:59.080Z,11.13
2022-08-18T00:38:03.351Z,11.23
2022-08-18T00:43:07.778Z,11.13
2022-08-18T00:48:11.283Z,11.70
2022-08-18T00:53:29.451Z,12.23
2022-08-18T00:58:37.077Z,12.25
2022-08-18T01:03:41.296Z,13.38
2022-08-18T01:08:43.601Z,12.30
2022-08-18T01:13:45.903Z,12.40
2022-08-18T01:19:06.069Z,11.63
2022-08-18T01:24:12.961Z,12.93
2022-08-18T01:29:18.855Z,13.27
2022-08-18T01:34:24.536Z,12.70
2022-08-18T01:41:21.185Z,13.30
2022-08-18T01:44:51.108Z,12.43
2022-08-18T01:49:53.423Z,14.48
2022-08-18T01:54:57.834Z,12.38
2022-08-18T02:00:01.090Z,11.85
2022-08-18T02:05:08.400Z,12.75
2022-08-18T02:10:12.151Z,10.98
2022-08-18T02:15:14.118Z,12.73
2022-08-18T02:20:17.978Z,13.00
2022-08-18T02:25:19.955Z,10.98
2022-08-18T02:30:22.025Z,11.13
2022-08-18T02:35:23.753Z,11.80
2022-08-18T02:40:25.453Z,14.03
2022-08-18T02:45:27.112Z,11.33
2022-08-18T02:50:28.931Z,12.20
2022-08-18T02:55:31.045Z,11.30
2022-08-18T03:00:32.718Z,12.80
2022-08-18T03:05:34.680Z,11.88
2022-08-18T03:10:36.341Z,12.90
2022-08-18T03:15:37.961Z,12.50
2022-08-18T03:20:39.685Z,14.80
2022-08-18T03:25:45.618Z,12.77
2022-08-18T03:30:47.326Z,11.80
2022-08-18T03:35:49.057Z,13.50
2022-08-18T03:40:52.720Z,12.00
2022-08-18T03:45:54.770Z,12.07
2022-08-18T03:51:05.475Z,11.40
2022-08-18T03:56:16.090Z,11.68
2022-08-18T04:01:25.278Z,11.50
2022-08-18T04:06:32.849Z,13.15
2022-08-18T04:11:37.256Z,15.15
2022-08-18T04:16:40.549Z,11.15
2022-08-18T04:21:42.797Z,13.43
2022-08-18T04:26:47.046Z,13.05
2022-08-18T04:31:50.336Z,11.93
2022-08-18T04:36:54.870Z,14.85
2022-08-18T04:41:56.649Z,16.13
2022-08-18T04:47:00.322Z,13.30
2022-08-18T04:52:39.687Z,13.77
2022-08-18T04:57:43.099Z,12.73
2022-08-18T05:02:44.835Z,12.52
2022-08-18T05:07:47.354Z,15.00
2022-08-18T05:12:49.553Z,17.08
2022-08-18T05:17:51.361Z,14.40
2022-08-18T05:22:53.083Z,15.43
2022-08-18T05:27:54.731Z,17.40
2022-08-18T05:32:56.533Z,17.73
2022-08-18T05:38:35.199Z,17.00
2022-08-18T05:43:40.682Z,19.40
2022-08-18T05:48:53.501Z,17.75
2022-08-18T05:54:14.377Z,20.17
2022-08-18T05:59:45.673Z,19.10
2022-08-18T06:04:57.008Z,19.08
2022-08-18T06:09:59.049Z,17.80
2022-08-18T06:15:23.079Z,21.10
2022-08-18T06:20:53.478Z,20.48
2022-08-18T06:26:11.072Z,19.25
2022-08-18T06:31:29.645Z,21.55
2022-08-18T06:36:39.318Z,20.52
2022-08-18T06:41:48.979Z,18.63
2022-08-18T06:47:04.167Z,18.02
2022-08-18T06:52:31.225Z,17.05
2022-08-18T06:57:38.160Z,16.58
2022-08-18T07:02:55.707Z,16.52
2022-08-18T07:08:10.460Z,15.63
2022-08-18T07:13:17.289Z,17.33
2022-08-18T07:18:29.911Z,16.33
2022-08-18T07:23:40.724Z,17.63
2022-08-18T07:28:48.314Z,17.70
2022-08-18T07:34:01.189Z,17.25
2022-08-18T07:39:11.130Z,17.77
2022-08-18T07:44:33.860Z,15.77
2022-08-18T07:49:37.142Z,16.40
2022-08-18T07:55:06.215Z,14.95
2022-08-18T08:00:47.736Z,16.55
2022-08-18T08:05:56.365Z,15.38
2022-08-18T08:10:59.256Z,16.02
2022-08-18T08:16:23.113Z,14.52
2022-08-18T08:21:31.794Z,13.80
2022-08-18T08:26:57.297Z,14.93
2022-08-18T08:32:05.357Z,12.25
2022-08-18T08:37:14.853Z,14.73
2022-08-18T08:42:30.978Z,11.38
2022-08-18T08:48:08.738Z,13.65
2022-08-18T08:53:21.234Z,12.35
2022-08-18T08:58:37.558Z,12.90
2022-08-18T09:03:53.258Z,15.20
2022-08-18T09:09:06.241Z,15.88
2022-08-18T09:14:32.389Z,15.98
2022-08-18T09:19:52.728Z,15.82
2022-08-18T09:24:55.785Z,15.55
2022-08-18T09:30:03.359Z,16.15
2022-08-18T09:35:44.071Z,16.88
2022-08-18T09:41:12.705Z,15.55
2022-08-18T09:46:42.382Z,16.70
2022-08-18T09:51:45.503Z,15.80
2022-08-18T09:56:53.882Z,15.90
2022-08-18T10:01:57.557Z,16.00
2022-08-18T10:07:44.018Z,14.88
2022-08-18T10:13:16.154Z,16.80
2022-08-18T10:18:53.251Z,16.27
2022-08-18T10:29:23.826Z,15.32
2022-08-18T10:34:51.584Z,15.38
2022-08-18T10:40:10.104Z,14.25
2022-08-18T10:45:35.013Z,14.23
2022-08-18T10:51:15.349Z,12.70
2022-08-18T10:56:30.317Z,11.05
2022-08-18T11:01:35.562Z,12.15
2022-08-18T11:06:44.045Z,13.05
2022-08-18T11:11:59.436Z,9.73
2022-08-18T11:17:11.530Z,11.95
2022-08-18T11:22:34.365Z,9.60
2022-08-18T11:27:46.917Z,9.43
2022-08-18T11:32:51.960Z,9.50
2022-08-18T11:38:05.245Z,9.10
2022-08-18T11:43:10.436Z,7.28
2022-08-18T11:48:37.755Z,7.57
2022-08-18T11:54:18.527Z,7.68
2022-08-18T12:04:53.449Z,8.23
2022-08-18T12:10:19.903Z,7.72
2022-08-18T12:15:44.326Z,8.82
2022-08-18T12:20:49.593Z,7.72
2022-08-18T12:25:53.019Z,8.00
2022-08-18T12:30:56.234Z,7.65
2022-08-18T12:35:59.149Z,5.45
2022-08-18T12:41:01.646Z,5.72
2022-08-18T12:46:06.453Z,5.82
2022-08-18T12:51:14.237Z,5.60
2022-08-18T12:56:22.173Z,5.63
2022-08-18T13:01:27.676Z,5.25
2022-08-18T13:06:31.166Z,5.50
2022-08-18T13:11:33.151Z,6.60
2022-08-18T13:16:54.076Z,6.20
2022-08-18T13:21:57.241Z,5.95
2022-08-18T13:26:59.164Z,5.50
2022-08-18T13:32:00.867Z,4.47
2022-08-18T13:37:02.690Z,5.30
2022-08-18T13:42:21.557Z,6.07
2022-08-18T13:47:28.378Z,5.47
2022-08-18T13:52:34.674Z,5.43
2022-08-18T13:57:39.687Z,5.68
2022-08-18T14:02:42.222Z,6.13
2022-08-18T14:07:45.455Z,6.72
2022-08-18T14:12:47.462Z,6.40
2022-08-18T14:17:51.662Z,6.20
2022-08-18T14:23:23.872Z,6.35
2022-08-18T14:28:31.896Z,6.60
2022-08-18T14:33:51.723Z,6.40
2022-08-18T14:38:55.444Z,6.60
2022-08-18T14:44:11.866Z,6.40
2022-08-18T14:49:15.531Z,6.70
2022-08-18T14:54:32.306Z,6.70
2022-08-18T14:59:34.675Z,7.38
2022-08-18T15:04:56.073Z,7.30
2022-08-18T15:10:14.481Z,6.70
2022-08-18T15:15:18.497Z,6.70
2022-08-18T15:20:28.652Z,6.70
2022-08-18T15:25:44.852Z,6.45
2022-08-18T15:30:51.216Z,7.28
2022-08-18T15:35:53.541Z,6.70
2022-08-18T15:40:58.250Z,6.15
2022-08-18T15:46:00.846Z,6.78
2022-08-18T15:51:11.493Z,6.40
2022-08-18T15:56:16.477Z,6.68
2022-08-18T16:01:30.381Z,6.35
2022-08-18T16:06:37.325Z,7.20
2022-08-18T16:11:41.227Z,7.18
2022-08-18T16:16:42.918Z,7.40
2022-08-18T16:21:44.562Z,7.40
2022-08-18T16:26:46.339Z,6.85
2022-08-18T16:31:48.964Z,7.15
2022-08-18T16:36:50.724Z,6.30
2022-08-18T16:41:52.508Z,7.35
2022-08-18T16:46:54.201Z,6.70
2022-08-18T16:51:56.079Z,6.95
2022-08-18T16:56:58.428Z,6.90
2022-08-18T17:02:18.828Z,7.18
2022-08-18T17:07:20.607Z,6.70
2022-08-18T17:12:23.056Z,7.00
2022-08-18T17:17:25.015Z,6.85
2022-08-18T17:22:26.867Z,7.40
2022-08-18T17:27:37.809Z,8.02
2022-08-18T17:32:42.768Z,7.50
2022-08-18T17:37:52.088Z,8.02
2022-08-18T17:42:55.271Z,8.13
2022-08-18T17:48:04.418Z,8.00
2022-08-18T17:53:06.555Z,8.13
2022-08-18T17:58:30.741Z,9.00
2022-08-18T18:03:34.013Z,8.43
2022-08-18T18:08:50.620Z,8.80
2022-08-18T18:13:52.573Z,8.98
2022-08-18T18:19:00.909Z,9.20
2022-08-18T18:24:06.007Z,9.50
2022-08-18T18:29:19.193Z,9.95
2022-08-18T18:34:31.757Z,9.65
2022-08-18T18:39:35.961Z,10.15
2022-08-18T18:44:37.725Z,10.13
2022-08-18T18:50:04.858Z,10.50
2022-08-18T18:55:15.228Z,11.48
2022-08-18T19:00:19.938Z,11.35
2022-08-18T19:05:44.707Z,11.90
2022-08-18T19:10:57.408Z,13.52
2022-08-18T19:16:09.584Z,14.25
2022-08-18T19:22:05.034Z,14.68
2022-08-18T19:26:48.682Z,13.18
2022-08-18T19:32:01.171Z,15.30
2022-08-18T19:37:31.334Z,15.30
2022-08-18T19:42:42.949Z,15.82
2022-08-18T19:48:05.113Z,13.93
2022-08-18T19:53:31.396Z,14.90
2022-08-18T20:04:51.545Z,13.80
2022-08-18T20:10:08.388Z,13.98
2022-08-18T20:15:16.728Z,13.15
2022-08-18T20:20:18.640Z,12.80
2022-08-18T20:25:23.503Z,13.60
2022-08-18T20:30:47.917Z,13.68
2022-08-18T20:36:13.873Z,13.57
2022-08-18T20:41:39.559Z,13.35
2022-08-18T20:46:47.352Z,14.30
2022-08-18T20:51:57.877Z,15.20
2022-08-18T20:57:02.665Z,18.83
2022-08-18T21:02:24.519Z,17.38
2022-08-18T21:07:37.877Z,18.60
2022-08-18T21:12:52.173Z,17.08
2022-08-18T21:18:03.788Z,17.50
2022-08-18T21:23:12.000Z,17.40
2022-08-18T21:28:13.821Z,17.42
2022-08-18T21:33:21.004Z,17.87
2022-08-18T21:38:28.656Z,19.58
2022-08-18T21:43:49.162Z,18.13
2022-08-18T21:48:54.781Z,17.45
2022-08-18T21:53:58.516Z,18.85
2022-08-18T21:59:12.995Z,18.73
2022-08-18T22:04:24.271Z,20.35
2022-08-18T22:09:48.312Z,20.63
2022-08-18T22:14:54.774Z,20.35
2022-08-18T22:20:35.058Z,21.98
2022-08-18T22:25:36.768Z,20.08
2022-08-18T22:30:38.494Z,21.03
2022-08-18T22:35:40.470Z,22.83
2022-08-18T22:40:42.188Z,24.20
2022-08-18T22:45:43.873Z,27.53
2022-08-18T22:50:46.261Z,27.43
2022-08-18T22:55:49.282Z,29.67
2022-08-18T23:00:52.640Z,33.30
2022-08-18T23:06:11.499Z,31.08
2022-08-18T23:11:13.238Z,32.03
2022-08-18T23:16:31.968Z,32.43
2022-08-18T23:21:35.797Z,33.42
2022-08-18T23:26:38.179Z,33.15
2022-08-18T23:31:41.944Z,30.20
2022-08-18T23:36:45.970Z,30.13
2022-08-18T23:41:47.852Z,29.30
2022-08-18T23:46:51.015Z,26.80
2022-08-18T23:51:55.904Z,28.00
2022-08-18T23:56:58.042Z,29.75
